Time;durP1;ratioP1;P1;durP2;ratioP2;P2;SDS_P1;SDS_P2;PMS_P1;PMS_P2;Temp;Humidity;BMP_temperature;BMP_pressure;BME280_temperature;BME280_humidity;BME280_pressure;Samples;Min_cycle;Max_cycle;Signal;HPM_P1;HPM_P2
2023/01/29 00:01:29;;;;;;;16.90;7.37;;;-0.30;99.90;;;;;;4937989;29;20205;-74
2023/01/29 00:03:56;;;;;;;16.37;7.47;;;-0.40;99.90;;;;;;4938083;29;20236;-72
2023/01/29 00:06:24;;;;;;;12.20;7.53;;;-0.30;99.90;;;;;;4937957;29;20227;-77
2023/01/29 00:08:51;;;;;;;14.37;7.37;;;-0.40;99.90;;;;;;4937461;29;20239;-74
2023/01/29 00:11:19;;;;;;;16.17;7.60;;;-0.50;99.90;;;;;;4937585;29;20247;-72
2023/01/29 00:13:45;;;;;;;16.30;8.57;;;-0.50;99.90;;;;;;4938069;29;20213;-73
2023/01/29 00:16:13;;;;;;;17.00;7.37;;;-0.60;99.90;;;;;;4937872;29;20307;-73
2023/01/29 00:18:40;;;;;;;14.60;6.97;;;-0.50;99.90;;;;;;4937759;29;20256;-77
2023/01/29 00:21:09;;;;;;;14.73;6.17;;;-0.50;99.90;;;;;;4937811;29;20219;-76
2023/01/29 00:23:38;;;;;;;16.60;6.93;;;-0.60;99.90;;;;;;4937644;29;20228;-75
2023/01/29 00:26:05;;;;;;;17.97;7.47;;;-0.60;99.90;;;;;;4937820;29;20209;-75
2023/01/29 00:28:31;;;;;;;16.63;7.50;;;-0.60;99.90;;;;;;4937325;29;20660;-74
2023/01/29 00:30:59;;;;;;;17.87;6.87;;;-0.70;99.90;;;;;;4937403;29;20213;-77
2023/01/29 00:33:25;;;;;;;18.83;7.03;;;-0.70;99.90;;;;;;4937712;29;20220;-76
2023/01/29 00:35:52;;;;;;;12.90;6.57;;;-0.70;99.90;;;;;;4937380;29;20241;-74
2023/01/29 00:38:19;;;;;;;12.03;6.77;;;-0.70;99.90;;;;;;4937364;29;20217;-73
2023/01/29 00:46:12;;;;;;;13.97;6.80;;;-0.80;99.90;;;;;;4937411;29;20212;-71
2023/01/29 00:48:39;;;;;;;15.00;6.17;;;-0.90;99.90;;;;;;4937463;29;20227;-74
2023/01/29 00:51:05;;;;;;;14.60;6.50;;;-0.90;99.90;;;;;;4937233;29;20208;-74
2023/01/29 00:53:32;;;;;;;15.63;7.27;;;-0.90;99.90;;;;;;4937178;29;20219;-73
2023/01/29 00:56:00;;;;;;;15.03;6.93;;;-0.90;99.90;;;;;;4937063;29;20236;-74
2023/01/29 00:58:33;;;;;;;12.00;5.97;;;-0.90;99.90;;;;;;4936991;29;20215;-74
2023/01/29 01:01:01;;;;;;;11.53;5.97;;;-0.80;99.90;;;;;;4936856;29;20638;-74
2023/01/29 01:03:27;;;;;;;13.20;5.73;;;-0.90;99.90;;;;;;4936914;29;20271;-73
2023/01/29 01:06:04;;;;;;;14.67;6.10;;;-1.00;99.90;;;;;;4936967;29;20256;-73
2023/01/29 01:11:17;;;;;;;9.67;4.90;;;-0.90;99.90;;;;;;4936364;29;20208;-73
2023/01/29 01:13:44;;;;;;;13.33;5.10;;;-1.00;99.90;;;;;;4936903;29;20215;-73
2023/01/29 01:16:11;;;;;;;12.20;6.13;;;-1.00;99.90;;;;;;4936711;29;20695;-75
2023/01/29 01:18:38;;;;;;;16.47;6.90;;;-0.90;99.90;;;;;;4936613;29;20683;-74
2023/01/29 01:21:05;;;;;;;15.47;5.30;;;-0.90;99.90;;;;;;4936774;29;20212;-74
2023/01/29 01:23:33;;;;;;;12.93;5.40;;;-1.00;99.90;;;;;;4936382;29;20212;-73
2023/01/29 01:26:00;;;;;;;12.23;5.67;;;-0.90;99.90;;;;;;4936844;29;20215;-74
2023/01/29 01:28:28;;;;;;;9.83;5.10;;;-1.00;99.90;;;;;;4936702;29;20212;-73
2023/01/29 01:30:55;;;;;;;12.77;6.23;;;-0.90;99.90;;;;;;4936754;29;20236;-73
2023/01/29 01:33:22;;;;;;;10.33;5.50;;;-0.90;99.90;;;;;;4936552;29;20216;-74
2023/01/29 01:35:49;;;;;;;12.07;5.23;;;-0.90;99.90;;;;;;4936407;29;20236;-73
2023/01/29 01:38:15;;;;;;;11.53;5.67;;;-0.80;99.90;;;;;;4936299;29;20219;-75
2023/01/29 01:40:46;;;;;;;13.37;5.60;;;-0.90;99.90;;;;;;4936598;29;20235;-76
2023/01/29 01:43:12;;;;;;;14.00;6.00;;;-1.00;99.90;;;;;;4936513;29;20280;-74
2023/01/29 01:45:42;;;;;;;10.23;5.57;;;-1.10;99.90;;;;;;4936373;29;20211;-76
2023/01/29 01:48:16;;;;;;;12.13;5.17;;;-1.10;99.90;;;;;;4936217;29;20744;-74
2023/01/29 01:50:48;;;;;;;10.63;5.20;;;-1.00;99.90;;;;;;4936033;29;20260;-76
2023/01/29 01:53:18;;;;;;;11.67;6.03;;;-0.90;99.90;;;;;;4935930;29;20215;-74
2023/01/29 01:55:50;;;;;;;10.50;4.83;;;-1.00;99.90;;;;;;4936246;29;20246;-73
2023/01/29 01:58:25;;;;;;;10.70;5.43;;;-1.10;99.90;;;;;;4936056;29;20215;-74
2023/01/29 02:00:53;;;;;;;11.33;5.50;;;-1.10;99.90;;;;;;4936117;29;20263;-73
2023/01/29 02:11:42;;;;;;;8.77;4.83;;;-1.00;99.90;;;;;;4936026;29;20336;-76
2023/01/29 02:14:10;;;;;;;10.63;5.17;;;-1.00;99.90;;;;;;4936168;29;20211;-75
2023/01/29 02:16:38;;;;;;;12.77;6.37;;;-1.00;99.90;;;;;;4935851;29;20683;-74
2023/01/29 02:19:11;;;;;;;9.90;5.43;;;-1.00;99.90;;;;;;4935977;29;20228;-75
2023/01/29 02:22:05;;;;;;;10.83;4.80;;;-1.00;99.90;;;;;;4935592;29;20230;-76
2023/01/29 02:25:08;;;;;;;9.40;4.70;;;-1.00;99.90;;;;;;4935928;29;20208;-75
2023/01/29 02:27:50;;;;;;;10.03;5.57;;;-1.10;99.90;;;;;;4935823;29;20230;-76
2023/01/29 02:30:24;;;;;;;14.10;5.57;;;-1.00;99.90;;;;;;4935514;29;20236;-72
2023/01/29 02:32:59;;;;;;;11.80;6.00;;;-1.00;99.90;;;;;;4935868;29;20264;-73
2023/01/29 02:35:31;;;;;;;9.70;4.90;;;-1.00;99.90;;;;;;4935539;29;20711;-74
2023/01/29 02:38:07;;;;;;;12.97;4.67;;;-1.00;99.90;;;;;;4935904;29;20213;-74
2023/01/29 02:40:42;;;;;;;12.43;5.87;;;-1.00;99.90;;;;;;4935617;29;20228;-75
2023/01/29 02:43:21;;;;;;;6.37;3.73;;;-1.10;99.90;;;;;;4936099;29;20643;-73
2023/01/29 02:45:53;;;;;;;13.40;5.20;;;-1.10;99.90;;;;;;4935940;29;20209;-75
2023/01/29 02:48:23;;;;;;;14.70;6.57;;;-1.10;99.90;;;;;;4935703;29;20213;-73
2023/01/29 02:50:56;;;;;;;10.30;5.40;;;-1.10;99.90;;;;;;4935799;29;20239;-72
2023/01/29 02:53:31;;;;;;;12.53;4.77;;;-1.20;99.90;;;;;;4935773;29;20272;-72
2023/01/29 02:56:03;;;;;;;12.17;5.50;;;-1.20;99.90;;;;;;4935624;29;20742;-73
2023/01/29 02:58:34;;;;;;;13.93;5.97;;;-1.20;99.90;;;;;;4935521;29;20208;-73
2023/01/29 03:01:08;;;;;;;12.03;5.57;;;-1.30;99.90;;;;;;4935493;29;20205;-74
2023/01/29 03:03:38;;;;;;;12.97;6.10;;;-1.30;99.90;;;;;;4935430;29;20676;-72
2023/01/29 03:06:10;;;;;;;13.53;6.53;;;-1.20;99.90;;;;;;4935797;29;20312;-72
2023/01/29 03:08:44;;;;;;;10.27;5.00;;;-1.20;99.90;;;;;;4935206;29;20212;-74
2023/01/29 03:11:13;;;;;;;12.20;5.03;;;-1.20;99.90;;;;;;4935530;29;20209;-73
2023/01/29 03:13:45;;;;;;;6.33;4.03;;;-1.20;99.90;;;;;;4935393;29;20217;-73
2023/01/29 03:16:19;;;;;;;9.90;5.33;;;-1.30;99.90;;;;;;4935080;29;20251;-72
2023/01/29 03:18:51;;;;;;;12.03;5.30;;;-1.30;99.90;;;;;;4935692;29;20205;-74
2023/01/29 03:32:34;;;;;;;6.63;3.97;;;-1.40;99.90;;;;;;4935250;29;20572;-72
2023/01/29 03:35:06;;;;;;;13.43;5.73;;;-1.40;99.90;;;;;;4937159;29;20299;-73
2023/01/29 03:37:36;;;;;;;9.67;5.50;;;-1.40;99.90;;;;;;4938618;29;20245;-72
2023/01/29 03:40:05;;;;;;;11.80;5.03;;;-1.40;99.90;;;;;;4938633;29;20323;-72
2023/01/29 03:42:44;;;;;;;9.43;5.07;;;-1.30;99.90;;;;;;4938586;29;20208;-72
2023/01/29 03:45:18;;;;;;;8.80;4.97;;;-1.30;99.90;;;;;;4938486;29;20209;-72
2023/01/29 03:47:54;;;;;;;12.33;5.80;;;-1.30;99.90;;;;;;4938667;29;20204;-72
2023/01/29 03:50:34;;;;;;;14.33;6.10;;;-1.30;99.90;;;;;;4938489;29;20228;-73
2023/01/29 03:53:08;;;;;;;11.90;4.93;;;-1.30;99.90;;;;;;4938396;29;20209;-72
2023/01/29 03:55:41;;;;;;;8.97;5.17;;;-1.30;99.90;;;;;;4937640;29;20664;-72
2023/01/29 03:58:20;;;;;;;11.60;5.73;;;-1.30;99.90;;;;;;4937872;29;20211;-73
2023/01/29 04:00:54;;;;;;;9.13;4.57;;;-1.30;99.90;;;;;;4937844;29;20231;-74
2023/01/29 04:03:24;;;;;;;11.80;5.30;;;-1.40;99.90;;;;;;4937871;29;20205;-76
2023/01/29 04:06:04;;;;;;;12.10;6.17;;;-1.40;99.90;;;;;;4937835;29;20219;-73
2023/01/29 04:08:35;;;;;;;12.83;5.40;;;-1.50;99.90;;;;;;4938038;29;20217;-75
2023/01/29 04:11:09;;;;;;;12.07;5.27;;;-1.40;99.90;;;;;;4937980;29;20684;-74
2023/01/29 04:13:37;;;;;;;10.70;5.53;;;-1.40;99.90;;;;;;4937945;29;20674;-75
2023/01/29 04:16:08;;;;;;;12.17;5.70;;;-1.30;99.90;;;;;;4937975;29;20239;-72
2023/01/29 04:18:37;;;;;;;15.93;6.03;;;-1.30;99.90;;;;;;4937556;29;20208;-74
2023/01/29 04:21:07;;;;;;;9.70;4.73;;;-1.30;99.90;;;;;;4938002;29;20215;-73
2023/01/29 04:23:34;;;;;;;10.47;5.43;;;-1.30;99.90;;;;;;4937612;29;20244;-72
2023/01/29 04:26:23;;;;;;;10.93;5.30;;;-1.40;99.90;;;;;;4937761;29;20221;-72
2023/01/29 04:29:09;;;;;;;13.47;5.30;;;-1.30;99.90;;;;;;4937439;29;20208;-73
2023/01/29 04:31:43;;;;;;;10.90;5.70;;;-1.30;99.90;;;;;;4937697;29;20667;-73
2023/01/29 04:34:21;;;;;;;11.70;6.33;;;-1.20;99.90;;;;;;4937789;29;20207;-74
2023/01/29 04:37:02;;;;;;;11.27;5.37;;;-1.30;99.90;;;;;;4937439;29;20248;-73
2023/01/29 04:39:36;;;;;;;10.40;5.83;;;-1.30;99.90;;;;;;4937019;29;20273;-75
2023/01/29 04:42:10;;;;;;;11.37;5.73;;;-1.30;99.90;;;;;;4937259;29;20678;-72
2023/01/29 04:44:42;;;;;;;13.00;5.97;;;-1.30;99.90;;;;;;4937624;29;20212;-71
2023/01/29 04:47:19;;;;;;;13.73;6.30;;;-1.40;99.90;;;;;;4936525;29;20213;-75
2023/01/29 04:49:56;;;;;;;12.07;6.33;;;-1.40;99.90;;;;;;4936937;29;20229;-72
2023/01/29 04:52:32;;;;;;;11.07;5.97;;;-1.40;99.90;;;;;;4937661;29;20230;-72
2023/01/29 04:55:04;;;;;;;16.07;7.10;;;-1.30;99.90;;;;;;4937018;29;20216;-72
2023/01/29 04:57:36;;;;;;;10.03;5.83;;;-1.10;99.90;;;;;;4936968;29;20236;-72
2023/01/29 05:00:10;;;;;;;13.13;6.43;;;-1.10;99.90;;;;;;4936909;29;20229;-73
2023/01/29 05:02:39;;;;;;;12.63;6.70;;;-1.10;99.90;;;;;;4936880;29;20211;-71
2023/01/29 05:05:09;;;;;;;15.43;7.07;;;-0.90;99.90;;;;;;4937049;29;20219;-71
2023/01/29 05:07:38;;;;;;;11.10;5.43;;;-0.80;99.90;;;;;;4937335;29;20212;-74
2023/01/29 05:10:08;;;;;;;13.77;5.80;;;-0.80;99.90;;;;;;4936673;29;20232;-72
2023/01/29 05:12:37;;;;;;;15.60;6.87;;;-0.70;99.90;;;;;;4936833;29;20216;-71
2023/01/29 05:15:09;;;;;;;16.93;6.63;;;-0.60;99.90;;;;;;4936620;29;20209;-71
2023/01/29 05:17:36;;;;;;;12.57;5.83;;;-0.50;99.90;;;;;;4936685;29;20236;-73
2023/01/29 05:20:03;;;;;;;20.10;8.43;;;-0.40;99.90;;;;;;4936873;29;20565;-72
2023/01/29 05:22:31;;;;;;;19.60;8.03;;;-0.40;99.90;;;;;;4937124;29;20216;-73
2023/01/29 05:24:58;;;;;;;13.90;6.57;;;-0.30;99.90;;;;;;4936407;29;20213;-72
2023/01/29 05:30:16;;;;;;;15.90;7.00;;;-0.20;99.90;;;;;;4936503;29;20228;-72
2023/01/29 05:32:43;;;;;;;15.00;7.23;;;-0.20;99.90;;;;;;4936340;29;20208;-72
2023/01/29 05:35:10;;;;;;;19.53;7.57;;;0.00;99.90;;;;;;4936409;29;20213;-72
2023/01/29 05:37:38;;;;;;;16.97;7.37;;;0.00;99.90;;;;;;4936096;29;20241;-72
2023/01/29 05:40:07;;;;;;;21.90;6.87;;;0.10;99.90;;;;;;4935762;29;20615;-75
2023/01/29 05:42:34;;;;;;;22.70;8.70;;;0.10;99.90;;;;;;4935874;29;20209;-74
2023/01/29 05:45:01;;;;;;;19.20;8.37;;;0.20;99.90;;;;;;4935400;29;20209;-72
2023/01/29 05:47:27;;;;;;;20.60;9.70;;;0.30;99.90;;;;;;4935500;29;20579;-71
2023/01/29 05:49:54;;;;;;;21.43;8.10;;;0.40;99.90;;;;;;4935463;29;20228;-72
2023/01/29 05:52:21;;;;;;;24.90;8.83;;;0.40;99.90;;;;;;4935793;29;20256;-71
2023/01/29 05:54:49;;;;;;;19.53;8.67;;;0.50;99.90;;;;;;4936137;29;20209;-71
2023/01/29 05:57:16;;;;;;;22.93;7.60;;;0.50;99.90;;;;;;4935703;29;20265;-71
2023/01/29 05:59:43;;;;;;;21.30;8.87;;;0.50;99.90;;;;;;4936097;29;20235;-71
2023/01/29 06:02:10;;;;;;;21.87;8.80;;;0.60;99.90;;;;;;4936192;29;20208;-72
2023/01/29 06:04:37;;;;;;;19.47;8.67;;;0.60;99.90;;;;;;4935819;29;20216;-72
2023/01/29 06:07:04;;;;;;;17.20;7.77;;;0.70;99.90;;;;;;4936282;29;20307;-72
2023/01/29 06:09:31;;;;;;;22.93;9.53;;;0.70;99.90;;;;;;4935799;29;20704;-72
2023/01/29 06:11:59;;;;;;;22.87;9.57;;;0.80;99.90;;;;;;4936037;29;20690;-72
2023/01/29 06:14:26;;;;;;;20.03;8.40;;;0.80;99.90;;;;;;4935521;29;20209;-73
2023/01/29 06:16:52;;;;;;;22.40;9.13;;;0.90;99.90;;;;;;4935599;29;20738;-74
2023/01/29 06:19:20;;;;;;;23.57;9.03;;;0.90;99.90;;;;;;4935847;29;20250;-73
2023/01/29 06:21:46;;;;;;;19.67;7.73;;;0.90;99.90;;;;;;4935552;29;20212;-75
2023/01/29 06:24:13;;;;;;;22.20;8.47;;;0.90;99.90;;;;;;4936044;29;20340;-74
2023/01/29 06:26:40;;;;;;;20.73;9.97;;;0.90;99.90;;;;;;4935842;29;20212;-73
2023/01/29 06:29:08;;;;;;;22.47;10.07;;;0.90;99.90;;;;;;4936026;29;20233;-72
2023/01/29 06:31:35;;;;;;;19.70;8.70;;;0.90;99.90;;;;;;4935831;29;20220;-72
2023/01/29 06:34:02;;;;;;;22.00;8.53;;;1.00;99.90;;;;;;4935457;29;20211;-72
2023/01/29 06:36:29;;;;;;;21.50;9.03;;;1.00;99.90;;;;;;4935698;29;20212;-71
2023/01/29 06:38:56;;;;;;;20.70;9.27;;;1.10;99.90;;;;;;4935915;29;20313;-71
2023/01/29 06:41:24;;;;;;;18.23;9.43;;;1.10;99.90;;;;;;4935812;29;20216;-72
2023/01/29 06:43:51;;;;;;;24.70;9.63;;;1.20;99.90;;;;;;4935551;29;20232;-73
2023/01/29 06:46:19;;;;;;;27.63;10.37;;;1.30;99.90;;;;;;4935490;29;20219;-73
2023/01/29 06:48:46;;;;;;;25.33;9.60;;;1.30;99.90;;;;;;4935380;29;20209;-72
2023/01/29 06:51:13;;;;;;;19.47;9.47;;;1.50;99.90;;;;;;4935506;29;20216;-72
2023/01/29 06:53:40;;;;;;;22.63;9.10;;;1.50;99.90;;;;;;4935325;29;20204;-72
2023/01/29 06:56:07;;;;;;;23.80;10.33;;;1.60;99.90;;;;;;4935811;29;20219;-72
2023/01/29 06:58:37;;;;;;;19.83;8.77;;;1.50;99.90;;;;;;4935303;29;20258;-71
2023/01/29 07:01:05;;;;;;;30.63;10.17;;;1.50;99.90;;;;;;4935452;29;20225;-71
2023/01/29 07:03:33;;;;;;;19.03;9.40;;;1.40;99.90;;;;;;4935414;29;20213;-70
2023/01/29 07:06:00;;;;;;;23.00;8.63;;;1.40;99.90;;;;;;4935388;29;20298;-71
2023/01/29 07:08:27;;;;;;;27.20;11.23;;;1.40;99.90;;;;;;4935399;29;20227;-72
2023/01/29 07:10:58;;;;;;;21.00;9.73;;;1.40;99.90;;;;;;4938849;29;20232;-71
2023/01/29 07:13:25;;;;;;;26.00;9.60;;;1.40;99.90;;;;;;4938951;29;20260;-70
2023/01/29 07:15:52;;;;;;;21.80;10.10;;;1.50;99.90;;;;;;4938952;29;20217;-71
2023/01/29 07:18:19;;;;;;;23.40;9.10;;;1.70;99.90;;;;;;4938760;29;20238;-71
2023/01/29 07:20:47;;;;;;;25.30;9.60;;;1.90;99.90;;;;;;4938997;29;20236;-72
2023/01/29 07:23:14;;;;;;;22.73;10.43;;;1.90;99.90;;;;;;4938755;29;20649;-72
2023/01/29 07:25:41;;;;;;;24.37;10.43;;;1.90;99.90;;;;;;4938796;29;20205;-71
2023/01/29 07:28:08;;;;;;;22.93;9.03;;;2.00;99.90;;;;;;4938592;29;20212;-71
2023/01/29 07:30:35;;;;;;;21.23;10.10;;;2.00;99.90;;;;;;4938818;29;20240;-71
2023/01/29 07:33:03;;;;;;;21.87;9.83;;;2.00;99.90;;;;;;4938868;29;20213;-71
2023/01/29 07:35:29;;;;;;;22.00;10.27;;;2.10;99.90;;;;;;4938807;29;20256;-72
2023/01/29 07:37:58;;;;;;;26.23;10.77;;;2.10;99.90;;;;;;4938412;29;20243;-72
2023/01/29 07:40:24;;;;;;;25.13;10.23;;;2.10;99.90;;;;;;4938196;29;20229;-72
2023/01/29 07:42:51;;;;;;;18.63;9.03;;;2.20;99.90;;;;;;4938540;29;20217;-72
2023/01/29 07:45:18;;;;;;;22.53;8.93;;;2.30;99.90;;;;;;4938592;29;20216;-71
2023/01/29 07:47:45;;;;;;;25.67;11.63;;;2.40;99.90;;;;;;4938520;29;20213;-71
2023/01/29 07:50:12;;;;;;;19.67;9.77;;;2.60;99.90;;;;;;4938120;29;20240;-72
2023/01/29 07:52:38;;;;;;;18.37;8.63;;;2.50;99.90;;;;;;4938226;29;20213;-74
2023/01/29 07:55:07;;;;;;;27.90;9.80;;;2.50;99.90;;;;;;4938279;29;20208;-72
2023/01/29 07:57:34;;;;;;;23.93;9.50;;;2.60;99.90;;;;;;4938209;29;20235;-72
2023/01/29 08:00:01;;;;;;;19.17;8.90;;;2.80;99.90;;;;;;4938092;29;20236;-71
2023/01/29 08:02:28;;;;;;;19.90;8.33;;;2.70;99.90;;;;;;4938127;29;20209;-71
2023/01/29 08:04:54;;;;;;;27.10;9.80;;;2.70;99.90;;;;;;4938215;29;20219;-71
2023/01/29 08:07:21;;;;;;;24.27;8.77;;;2.80;99.90;;;;;;4937903;29;20213;-71
2023/01/29 08:09:48;;;;;;;20.23;8.90;;;2.80;99.90;;;;;;4937865;29;20746;-71
2023/01/29 08:12:16;;;;;;;20.90;9.60;;;2.70;99.90;;;;;;4938176;29;20221;-71
2023/01/29 08:14:44;;;;;;;17.73;8.27;;;2.80;99.90;;;;;;4938012;29;20208;-72
2023/01/29 08:17:11;;;;;;;19.27;8.63;;;2.90;99.90;;;;;;4937706;29;20324;-72
2023/01/29 08:19:38;;;;;;;19.90;8.93;;;3.00;99.90;;;;;;4937427;29;20711;-72
2023/01/29 08:22:05;;;;;;;23.30;9.40;;;3.00;99.90;;;;;;4937658;29;20216;-71
2023/01/29 08:24:32;;;;;;;21.40;8.33;;;3.00;99.90;;;;;;4937627;29;20212;-71
2023/01/29 08:26:59;;;;;;;19.13;8.40;;;3.10;99.90;;;;;;4937987;29;20220;-70
2023/01/29 08:29:27;;;;;;;19.47;8.37;;;3.20;99.90;;;;;;4937742;29;20235;-71
2023/01/29 08:31:54;;;;;;;17.73;8.10;;;3.20;99.90;;;;;;4936857;29;20219;-71
2023/01/29 08:34:20;;;;;;;21.33;9.00;;;3.20;99.90;;;;;;4944768;29;20212;-70
2023/01/29 08:36:47;;;;;;;18.13;8.80;;;3.20;99.90;;;;;;4944270;29;20263;-71
2023/01/29 08:39:14;;;;;;;21.03;9.63;;;3.20;99.90;;;;;;4936595;29;20243;-71
2023/01/29 08:41:41;;;;;;;21.93;8.60;;;3.30;99.90;;;;;;4940903;29;20209;-71
2023/01/29 08:44:08;;;;;;;23.37;8.50;;;3.50;99.90;;;;;;4936788;29;20212;-71
2023/01/29 08:46:39;;;;;;;18.40;8.77;;;3.60;99.90;;;;;;4936095;29;20201;-72
2023/01/29 08:49:06;;;;;;;21.53;8.03;;;3.70;99.90;;;;;;4938546;29;20257;-71
2023/01/29 08:51:33;;;;;;;16.00;7.67;;;3.80;99.90;;;;;;4936344;29;20215;-70
2023/01/29 08:53:59;;;;;;;17.83;7.33;;;3.70;99.90;;;;;;4938538;29;20204;-71
2023/01/29 08:56:26;;;;;;;16.30;7.57;;;3.80;99.90;;;;;;4936621;29;20219;-70
2023/01/29 08:58:53;;;;;;;21.50;8.03;;;3.80;99.90;;;;;;4938611;29;20244;-71
2023/01/29 09:01:20;;;;;;;15.17;7.83;;;4.00;99.90;;;;;;4936387;29;20216;-70
2023/01/29 09:03:49;;;;;;;16.47;7.33;;;4.10;99.90;;;;;;4939933;29;20213;-70
2023/01/29 09:06:15;;;;;;;16.37;7.43;;;4.00;99.90;;;;;;4950494;28;20624;-71
2023/01/29 09:08:42;;;;;;;19.97;8.33;;;4.00;99.90;;;;;;4938299;29;20215;-70
2023/01/29 09:11:09;;;;;;;17.93;7.63;;;3.90;99.90;;;;;;4938811;29;20264;-70
2023/01/29 09:13:36;;;;;;;21.93;7.77;;;3.80;99.90;;;;;;4938271;29;20205;-71
2023/01/29 09:16:04;;;;;;;16.87;7.77;;;3.80;99.90;;;;;;4936022;29;20208;-72
2023/01/29 09:18:31;;;;;;;18.13;7.60;;;3.70;99.90;;;;;;4936200;29;20351;-71
2023/01/29 09:21:01;;;;;;;19.90;7.50;;;3.60;99.90;;;;;;4936742;29;20209;-70
2023/01/29 09:23:29;;;;;;;19.53;7.87;;;3.60;99.90;;;;;;4937267;29;20217;-72
2023/01/29 09:25:56;;;;;;;20.30;8.50;;;3.50;99.90;;;;;;4936282;29;20213;-71
2023/01/29 09:28:23;;;;;;;18.33;7.50;;;3.40;99.90;;;;;;4936338;29;20208;-71
2023/01/29 09:30:49;;;;;;;20.13;8.23;;;3.50;99.90;;;;;;4935963;29;20248;-72
2023/01/29 09:33:17;;;;;;;18.00;7.37;;;3.60;99.90;;;;;;4935701;29;20676;-70
2023/01/29 09:35:45;;;;;;;19.43;8.37;;;3.50;99.90;;;;;;4935793;29;20216;-70
2023/01/29 09:38:14;;;;;;;16.97;7.93;;;3.60;99.90;;;;;;4936094;29;20763;-71
2023/01/29 09:40:50;;;;;;;15.20;6.90;;;3.70;99.90;;;;;;4935542;29;20730;-70
2023/01/29 09:43:21;;;;;;;21.87;8.30;;;3.80;99.90;;;;;;4936131;29;20295;-71
2023/01/29 09:45:54;;;;;;;18.07;8.17;;;3.70;99.90;;;;;;4935665;29;20687;-72
2023/01/29 09:48:25;;;;;;;15.33;7.47;;;3.60;99.90;;;;;;4936107;29;20268;-70
2023/01/29 09:50:56;;;;;;;21.83;7.87;;;3.60;99.90;;;;;;4935442;29;20224;-72
2023/01/29 09:53:31;;;;;;;17.17;7.17;;;3.70;99.90;;;;;;4935791;29;20226;-71
2023/01/29 09:56:02;;;;;;;16.43;8.00;;;3.80;99.90;;;;;;4935838;29;20240;-70
2023/01/29 09:58:32;;;;;;;18.07;7.80;;;3.80;99.90;;;;;;4935780;29;20236;-70
2023/01/29 10:01:08;;;;;;;19.93;8.23;;;4.00;99.90;;;;;;4935804;29;20217;-70
2023/01/29 10:03:50;;;;;;;18.97;7.83;;;4.00;99.90;;;;;;4935560;29;20220;-75
2023/01/29 10:06:28;;;;;;;19.53;7.37;;;3.90;99.90;;;;;;4935639;29;20222;-73
2023/01/29 10:09:33;;;;;;;14.10;7.20;;;3.80;99.90;;;;;;4935857;29;20227;-73
2023/01/29 10:12:12;;;;;;;15.60;7.37;;;3.80;99.90;;;;;;4935396;29;20213;-75
2023/01/29 10:14:49;;;;;;;19.90;7.10;;;3.90;99.90;;;;;;4935448;29;20303;-75
2023/01/29 10:17:36;;;;;;;15.10;6.53;;;4.00;99.90;;;;;;4935769;29;20211;-76
2023/01/29 10:20:19;;;;;;;13.70;6.70;;;4.10;99.90;;;;;;4935567;29;20225;-76
2023/01/29 10:22:59;;;;;;;13.73;6.47;;;4.00;99.90;;;;;;4935509;29;20220;-73
2023/01/29 10:25:28;;;;;;;18.90;6.37;;;4.00;99.90;;;;;;4938144;29;20219;-74
2023/01/29 10:27:57;;;;;;;16.37;6.57;;;3.90;99.90;;;;;;4935311;29;20215;-75
2023/01/29 10:30:31;;;;;;;16.97;7.13;;;3.90;99.90;;;;;;4935343;29;20232;-75
2023/01/29 10:33:02;;;;;;;17.53;7.27;;;3.90;99.90;;;;;;4935337;29;20563;-74
2023/01/29 10:35:33;;;;;;;15.90;6.73;;;3.80;99.90;;;;;;4935290;29;20205;-77
2023/01/29 10:38:15;;;;;;;15.20;6.53;;;3.70;99.90;;;;;;4947178;29;20236;-76
2023/01/29 10:40:48;;;;;;;14.60;6.90;;;3.70;99.90;;;;;;4934227;29;20236;-76
2023/01/29 10:43:22;;;;;;;16.00;6.60;;;3.60;99.90;;;;;;4936174;29;20212;-76
2023/01/29 10:46:00;;;;;;;15.87;5.97;;;3.70;99.90;;;;;;4939097;29;20203;-74
2023/01/29 10:48:57;;;;;;;10.73;4.80;;;3.70;99.90;;;;;;4939133;29;20208;-73
2023/01/29 10:51:43;;;;;;;11.73;5.60;;;3.80;99.90;;;;;;4906245;29;20208;-74
2023/01/29 10:54:27;;;;;;;12.13;5.57;;;3.70;99.90;;;;;;4938739;29;20668;-74
2023/01/29 10:57:07;;;;;;;15.93;5.80;;;3.80;99.90;;;;;;4938925;29;20209;-77
2023/01/29 10:59:46;;;;;;;16.10;6.07;;;3.80;99.90;;;;;;4943339;29;20250;-75
2023/01/29 11:02:17;;;;;;;12.97;5.20;;;3.90;99.90;;;;;;4947149;29;20572;-75
2023/01/29 11:04:43;;;;;;;14.17;5.97;;;3.90;99.90;;;;;;4940839;29;20243;-75
2023/01/29 11:07:12;;;;;;;8.53;4.63;;;4.00;99.90;;;;;;4941184;28;20211;-76
2023/01/29 11:09:45;;;;;;;12.03;4.97;;;4.00;99.90;;;;;;4939864;29;20240;-73
2023/01/29 11:12:16;;;;;;;9.87;4.70;;;4.00;99.90;;;;;;4938701;29;20227;-74
2023/01/29 11:14:46;;;;;;;12.17;4.90;;;4.10;99.90;;;;;;4937595;29;20213;-73
2023/01/29 11:17:17;;;;;;;10.43;5.13;;;4.10;99.90;;;;;;4944831;29;20219;-76
2023/01/29 11:19:46;;;;;;;15.73;6.40;;;4.20;99.90;;;;;;4938369;29;20295;-76
2023/01/29 11:22:15;;;;;;;15.10;6.13;;;4.20;99.90;;;;;;4942841;29;20683;-73
2023/01/29 11:24:41;;;;;;;12.47;5.53;;;4.10;99.90;;;;;;4945446;29;20265;-76
2023/01/29 11:27:22;;;;;;;14.47;6.17;;;4.10;99.90;;;;;;4943749;29;20216;-74
2023/01/29 11:29:50;;;;;;;14.83;6.47;;;4.00;99.90;;;;;;4940605;29;20231;-76
2023/01/29 11:32:28;;;;;;;14.00;6.17;;;4.10;99.90;;;;;;4939252;29;20576;-77
2023/01/29 11:35:03;;;;;;;11.67;5.47;;;4.10;99.90;;;;;;4938209;29;20859;-74
2023/01/29 11:37:36;;;;;;;15.53;7.10;;;4.10;99.90;;;;;;4938320;29;20248;-75
2023/01/29 11:40:39;;;;;;;16.90;6.77;;;4.10;99.90;;;;;;4937362;29;20244;-75
2023/01/29 11:43:20;;;;;;;15.90;6.40;;;4.10;99.90;;;;;;4938295;29;20213;-75
2023/01/29 11:45:48;;;;;;;12.53;5.73;;;4.00;99.90;;;;;;4938304;29;20200;-76
2023/01/29 11:48:17;;;;;;;13.20;6.10;;;4.00;99.90;;;;;;4938195;29;20303;-75
2023/01/29 11:50:50;;;;;;;14.63;6.20;;;4.00;99.90;;;;;;4937888;29;20313;-77
2023/01/29 11:53:36;;;;;;;13.40;5.47;;;4.10;99.90;;;;;;4938360;29;20220;-75
2023/01/29 11:56:06;;;;;;;13.83;5.63;;;4.30;99.90;;;;;;4937045;29;20546;-75
2023/01/29 11:58:35;;;;;;;12.53;5.27;;;4.40;99.90;;;;;;4937745;29;20237;-75
2023/01/29 12:01:03;;;;;;;17.53;6.90;;;4.30;99.90;;;;;;4938002;29;20215;-75
2023/01/29 12:03:35;;;;;;;15.87;6.07;;;4.40;99.90;;;;;;4938022;29;20208;-76
2023/01/29 12:06:07;;;;;;;10.23;5.57;;;4.40;99.90;;;;;;4938191;29;20686;-75
2023/01/29 12:08:37;;;;;;;10.93;4.83;;;4.50;99.90;;;;;;4937879;29;20209;-75
2023/01/29 12:11:12;;;;;;;13.73;5.80;;;4.50;99.90;;;;;;4938191;29;20220;-74
2023/01/29 12:13:42;;;;;;;13.17;5.13;;;4.60;99.90;;;;;;4937762;29;20204;-75
2023/01/29 12:16:19;;;;;;;14.40;6.20;;;4.80;99.90;;;;;;4938167;29;20201;-75
2023/01/29 12:18:53;;;;;;;9.77;5.17;;;4.90;99.90;;;;;;4937651;29;20242;-74
2023/01/29 12:21:26;;;;;;;10.80;4.83;;;4.90;99.90;;;;;;4938034;29;20212;-75
2023/01/29 12:23:58;;;;;;;11.40;4.97;;;5.00;99.90;;;;;;4935093;29;20212;-74
2023/01/29 12:26:31;;;;;;;11.00;4.97;;;5.10;99.90;;;;;;4946641;28;20598;-72
2023/01/29 12:29:14;;;;;;;13.50;4.53;;;5.10;99.90;;;;;;4937651;29;20244;-76
2023/01/29 12:31:49;;;;;;;14.10;5.23;;;5.30;99.90;;;;;;4955276;29;20215;-74
2023/01/29 12:34:23;;;;;;;11.80;4.83;;;5.40;99.90;;;;;;4948318;29;20667;-73
2023/01/29 12:36:55;;;;;;;9.53;4.67;;;5.10;99.90;;;;;;4937460;29;20553;-74
2023/01/29 12:39:22;;;;;;;13.60;4.83;;;5.20;99.90;;;;;;4937110;29;20248;-74
2023/01/29 12:41:54;;;;;;;11.73;5.00;;;5.00;99.90;;;;;;4938646;29;20205;-73
2023/01/29 12:44:32;;;;;;;9.33;4.03;;;5.00;99.90;;;;;;4947374;29;20205;-75
2023/01/29 12:47:02;;;;;;;9.40;4.20;;;5.20;99.90;;;;;;4937106;29;20212;-72
2023/01/29 12:49:33;;;;;;;8.97;4.03;;;5.10;99.90;;;;;;4937320;29;20225;-74
2023/01/29 12:52:07;;;;;;;9.30;4.33;;;5.10;99.90;;;;;;4937108;29;20213;-75
2023/01/29 12:54:39;;;;;;;9.57;4.10;;;5.00;99.90;;;;;;4936648;29;20233;-72
2023/01/29 12:57:14;;;;;;;7.10;3.97;;;5.10;99.90;;;;;;4936922;29;20216;-72
2023/01/29 12:59:49;;;;;;;10.53;4.53;;;5.00;99.90;;;;;;4936786;29;20240;-74
2023/01/29 13:02:26;;;;;;;6.30;4.03;;;5.00;99.90;;;;;;4936613;29;20301;-76
2023/01/29 13:04:58;;;;;;;9.53;4.23;;;5.00;99.90;;;;;;4936667;29;20211;-76
2023/01/29 13:07:31;;;;;;;9.97;4.37;;;5.20;99.90;;;;;;4935873;29;20216;-73
2023/01/29 13:10:07;;;;;;;10.27;4.43;;;5.20;99.90;;;;;;4936430;29;20715;-76
2023/01/29 13:12:35;;;;;;;7.37;3.90;;;5.20;99.90;;;;;;4936928;29;20579;-74
2023/01/29 13:15:14;;;;;;;10.07;4.17;;;5.30;99.90;;;;;;4936757;29;20235;-75
2023/01/29 13:17:45;;;;;;;9.43;4.37;;;5.50;99.90;;;;;;4936909;29;20586;-76
2023/01/29 13:20:17;;;;;;;9.70;4.10;;;5.60;99.90;;;;;;4952443;29;20246;-76
2023/01/29 13:22:46;;;;;;;8.83;4.30;;;5.70;99.90;;;;;;4936350;29;20213;-76
2023/01/29 13:25:16;;;;;;;8.27;4.30;;;5.70;99.90;;;;;;4936337;29;20209;-74
2023/01/29 13:27:46;;;;;;;7.97;3.97;;;5.60;99.90;;;;;;4936675;29;20212;-76
2023/01/29 13:30:28;;;;;;;11.93;4.50;;;5.60;99.90;;;;;;4935974;29;20361;-76
2023/01/29 13:33:07;;;;;;;7.90;3.87;;;5.40;99.90;;;;;;4936485;29;20209;-76